Time;durP1;ratioP1;P1;durP2;ratioP2;P2;SDS_P1;SDS_P2;PMS_P1;PMS_P2;Temp;Humidity;BMP_temperature;BMP_pressure;BME280_temperature;BME280_humidity;BME280_pressure;Samples;Min_cycle;Max_cycle;Signal;HPM_P1;HPM_P2
2024/03/28 00:02:14;;;;;;;6.45;1.70;;;5.20;99.90;;;;;;4911573;29;20482;-91
2024/03/28 00:04:40;;;;;;;6.03;1.65;;;5.20;99.90;;;;;;4911142;29;20123;-90
2024/03/28 00:07:06;;;;;;;6.47;1.63;;;5.20;99.90;;;;;;4910958;29;20537;-89
2024/03/28 00:09:31;;;;;;;6.82;1.77;;;5.10;99.90;;;;;;4911169;29;20028;-91
2024/03/28 00:11:57;;;;;;;6.68;1.67;;;5.10;99.90;;;;;;4913629;29;20083;-89
2024/03/28 00:14:23;;;;;;;7.50;1.95;;;5.10;99.90;;;;;;4903536;29;20038;-90
2024/03/28 00:16:48;;;;;;;10.02;1.98;;;5.10;99.90;;;;;;4915921;29;20036;-89
2024/03/28 00:19:14;;;;;;;11.85;2.70;;;5.10;99.90;;;;;;4894493;29;20021;-90
2024/03/28 00:21:40;;;;;;;7.57;1.50;;;5.00;99.90;;;;;;4896923;29;20549;-90
2024/03/28 00:24:06;;;;;;;6.32;1.50;;;5.00;99.90;;;;;;4904960;29;20040;-89
2024/03/28 00:26:32;;;;;;;8.18;1.70;;;5.00;99.90;;;;;;4902446;29;20028;-89
2024/03/28 00:28:57;;;;;;;9.38;1.90;;;5.00;99.90;;;;;;4902133;29;20595;-90
2024/03/28 00:31:25;;;;;;;12.73;1.85;;;5.00;99.90;;;;;;4935520;29;20386;-90
2024/03/28 00:33:52;;;;;;;5.57;2.00;;;5.00;99.90;;;;;;4902601;29;20031;-89
2024/03/28 00:36:18;;;;;;;16.50;3.20;;;5.00;99.90;;;;;;4902459;29;20484;-89
2024/03/28 00:38:43;;;;;;;9.57;2.15;;;5.00;99.90;;;;;;4919464;29;20028;-90
2024/03/28 00:41:09;;;;;;;13.57;2.72;;;5.00;99.90;;;;;;4902398;29;20039;-90
2024/03/28 00:43:35;;;;;;;7.22;1.90;;;4.90;99.90;;;;;;4901638;29;20217;-90
2024/03/28 00:46:01;;;;;;;7.32;2.38;;;4.90;99.90;;;;;;4901649;29;20398;-89
2024/03/28 00:48:26;;;;;;;9.15;1.85;;;4.90;99.90;;;;;;4933801;29;20032;-90
2024/03/28 00:50:53;;;;;;;10.85;2.50;;;4.90;99.90;;;;;;4902109;29;20024;-90
2024/03/28 00:53:19;;;;;;;4.90;2.42;;;4.90;99.90;;;;;;4902001;29;20120;-90
2024/03/28 00:55:45;;;;;;;4.82;2.17;;;4.90;99.90;;;;;;4902437;29;20032;-90
2024/03/28 00:58:12;;;;;;;8.85;3.35;;;4.90;99.90;;;;;;4902008;29;20031;-89
2024/03/28 01:00:38;;;;;;;7.78;3.47;;;4.90;99.90;;;;;;4901143;29;20402;-90
2024/03/28 01:03:04;;;;;;;15.23;3.45;;;4.90;99.90;;;;;;4901947;29;20028;-90
2024/03/28 01:05:29;;;;;;;8.93;2.65;;;4.80;99.90;;;;;;4933073;29;20036;-90
2024/03/28 01:07:55;;;;;;;8.27;2.83;;;4.80;99.90;;;;;;4901638;29;20029;-91
2024/03/28 01:10:21;;;;;;;13.60;3.25;;;4.80;99.90;;;;;;4901942;29;20028;-91
2024/03/28 01:12:46;;;;;;;10.77;4.30;;;4.80;99.90;;;;;;4901615;29;20032;-90
2024/03/28 01:15:12;;;;;;;14.07;3.22;;;4.80;99.90;;;;;;4901970;29;20024;-90
2024/03/28 01:17:38;;;;;;;9.88;2.75;;;4.80;99.90;;;;;;4901407;29;20660;-90
2024/03/28 01:20:06;;;;;;;12.38;2.97;;;4.80;99.90;;;;;;4901459;29;20071;-89
2024/03/28 01:22:32;;;;;;;12.85;4.05;;;4.80;99.90;;;;;;4932725;29;20127;-90
2024/03/28 01:24:58;;;;;;;13.23;3.28;;;4.80;99.90;;;;;;4901334;29;20067;-90
2024/03/28 01:27:24;;;;;;;6.90;2.85;;;4.80;99.90;;;;;;4901123;29;20118;-90
2024/03/28 01:29:53;;;;;;;6.30;2.95;;;4.80;99.90;;;;;;4901056;29;20079;-90
2024/03/28 01:32:19;;;;;;;10.73;3.35;;;4.80;99.90;;;;;;4922321;29;20035;-90
2024/03/28 01:34:45;;;;;;;6.22;2.97;;;4.80;99.90;;;;;;4917989;29;20028;-90
2024/03/28 01:37:13;;;;;;;6.07;3.28;;;4.80;99.90;;;;;;4901273;29;20027;-89
2024/03/28 01:39:39;;;;;;;12.00;4.13;;;4.80;99.90;;;;;;4926147;29;20090;-90
2024/03/28 01:42:05;;;;;;;9.85;3.97;;;4.80;99.90;;;;;;4907921;29;20430;-90
2024/03/28 01:44:31;;;;;;;9.80;4.20;;;4.80;99.90;;;;;;4908579;29;20069;-90
2024/03/28 01:46:58;;;;;;;8.25;3.90;;;4.90;99.90;;;;;;4914495;29;20142;-90
2024/03/28 01:49:27;;;;;;;9.10;4.43;;;4.90;99.90;;;;;;4903505;29;20028;-90
2024/03/28 01:51:55;;;;;;;6.93;4.00;;;4.90;99.90;;;;;;4901294;29;20028;-90
2024/03/28 01:54:22;;;;;;;9.10;3.95;;;4.90;99.90;;;;;;4902749;29;20508;-89
2024/03/28 01:56:48;;;;;;;12.05;4.10;;;5.00;99.90;;;;;;4902517;29;20032;-90
2024/03/28 01:59:15;;;;;;;10.55;4.57;;;5.00;99.90;;;;;;4905007;29;20024;-90
2024/03/28 02:01:45;;;;;;;6.35;4.07;;;5.00;99.90;;;;;;4907957;29;20031;-90
2024/03/28 02:04:11;;;;;;;7.13;4.37;;;5.10;99.90;;;;;;4900702;29;20032;-90
2024/03/28 02:06:39;;;;;;;12.10;4.60;;;5.10;99.90;;;;;;4901451;29;20056;-90
2024/03/28 02:09:07;;;;;;;9.10;4.57;;;5.10;99.90;;;;;;4900684;29;20032;-89
2024/03/28 02:11:34;;;;;;;11.13;5.00;;;5.10;99.90;;;;;;4901334;29;20024;-90
2024/03/28 02:14:03;;;;;;;12.05;4.28;;;5.10;99.90;;;;;;4900919;29;20035;-90
2024/03/28 02:16:38;;;;;;;9.38;4.60;;;5.10;99.90;;;;;;4916079;29;20032;-90
2024/03/28 02:19:05;;;;;;;9.40;4.45;;;5.10;99.90;;;;;;4900317;29;20056;-90
2024/03/28 02:21:31;;;;;;;9.38;4.75;;;5.10;99.90;;;;;;4900781;29;20028;-89
2024/03/28 02:23:57;;;;;;;7.68;4.82;;;5.10;99.90;;;;;;4900662;29;20032;-90
2024/03/28 02:26:24;;;;;;;11.38;4.82;;;5.10;99.90;;;;;;4901461;29;20055;-89
2024/03/28 02:28:51;;;;;;;9.18;4.38;;;5.10;99.90;;;;;;4901020;29;20032;-89
2024/03/28 02:31:17;;;;;;;16.60;4.75;;;5.10;99.90;;;;;;4903118;29;20028;-90
2024/03/28 02:33:43;;;;;;;10.88;4.43;;;5.20;99.90;;;;;;4910245;29;20028;-88
2024/03/28 02:36:08;;;;;;;15.90;5.88;;;5.20;99.90;;;;;;4908568;29;20060;-89
2024/03/28 02:38:34;;;;;;;9.27;4.82;;;5.20;99.90;;;;;;4907519;29;20032;-88
2024/03/28 02:41:00;;;;;;;12.23;4.82;;;5.20;99.90;;;;;;4907239;29;20028;-90
2024/03/28 02:43:27;;;;;;;14.63;5.50;;;5.30;99.90;;;;;;4923085;29;20048;-89
2024/03/28 02:45:52;;;;;;;9.43;5.03;;;5.30;99.90;;;;;;4907661;29;20024;-90
2024/03/28 02:48:19;;;;;;;14.75;5.80;;;5.30;99.90;;;;;;4905871;29;20042;-90
2024/03/28 02:50:44;;;;;;;11.15;5.93;;;5.30;99.90;;;;;;4908849;29;20035;-89
2024/03/28 02:53:10;;;;;;;13.20;6.03;;;5.40;99.90;;;;;;4910145;29;20469;-90
2024/03/28 02:55:36;;;;;;;8.38;4.53;;;5.40;99.90;;;;;;4909279;29;20032;-89
2024/03/28 02:58:02;;;;;;;9.90;5.80;;;5.50;99.90;;;;;;4906612;29;20084;-89
2024/03/28 03:00:27;;;;;;;12.10;5.72;;;5.50;99.90;;;;;;4903340;29;20032;-89
2024/03/28 03:02:53;;;;;;;16.92;5.72;;;5.50;99.90;;;;;;4902296;29;20032;-89
2024/03/28 03:05:22;;;;;;;12.68;6.20;;;5.60;99.90;;;;;;4918660;29;20043;-89
2024/03/28 03:07:48;;;;;;;11.65;5.75;;;5.60;99.90;;;;;;4902106;29;20473;-90
2024/03/28 03:10:14;;;;;;;15.00;6.10;;;5.70;99.90;;;;;;4903288;29;20103;-89
2024/03/28 03:12:40;;;;;;;13.60;6.13;;;5.80;99.90;;;;;;4905402;29;20028;-88
2024/03/28 03:15:07;;;;;;;13.95;6.50;;;5.80;99.90;;;;;;4905278;29;20032;-89
2024/03/28 03:17:32;;;;;;;11.52;6.25;;;5.90;99.90;;;;;;4904803;29;20064;-89
2024/03/28 03:20:00;;;;;;;10.93;6.63;;;5.90;99.90;;;;;;4915306;29;20043;-89
2024/03/28 03:22:28;;;;;;;14.13;7.13;;;6.00;99.90;;;;;;4910416;29;20040;-89
2024/03/28 03:24:58;;;;;;;15.55;7.93;;;6.00;99.90;;;;;;4907126;29;20107;-89
2024/03/28 03:27:32;;;;;;;;;;;6.00;99.90;;;;;;4913954;29;20034;-89
2024/03/28 03:35:27;;;;;;;11.85;6.10;;;6.00;99.90;;;;;;4930066;29;20059;-89
2024/03/28 03:37:53;;;;;;;14.38;7.38;;;6.00;99.90;;;;;;4914455;29;20024;-89
2024/03/28 03:40:19;;;;;;;15.20;6.45;;;6.00;99.90;;;;;;4914435;29;20498;-91
2024/03/28 03:42:44;;;;;;;12.77;7.78;;;6.00;99.90;;;;;;4911987;29;20474;-88
2024/03/28 03:45:10;;;;;;;16.17;7.07;;;6.00;99.90;;;;;;4916658;29;20485;-89
2024/03/28 03:47:35;;;;;;;12.80;8.82;;;6.00;99.90;;;;;;4914352;29;20027;-87
2024/03/28 03:50:01;;;;;;;17.40;8.07;;;6.10;99.90;;;;;;4930260;29;20439;-88
2024/03/28 03:52:27;;;;;;;12.60;6.82;;;6.10;99.90;;;;;;4907190;29;20123;-89
2024/03/28 03:54:52;;;;;;;15.45;7.38;;;6.20;99.90;;;;;;4903932;29;20032;-90
2024/03/28 03:57:18;;;;;;;15.00;7.80;;;6.20;99.90;;;;;;4903817;29;20083;-89
2024/03/28 03:59:44;;;;;;;15.02;7.82;;;6.20;99.90;;;;;;4903113;29;20508;-89
2024/03/28 04:02:09;;;;;;;12.68;6.68;;;6.20;99.90;;;;;;4903071;29;20386;-89
2024/03/28 04:04:35;;;;;;;12.00;6.90;;;6.20;99.90;;;;;;4904491;29;20051;-88
2024/03/28 04:07:01;;;;;;;13.45;7.30;;;6.20;99.90;;;;;;4937024;29;20064;-88
2024/03/28 04:09:27;;;;;;;12.07;6.68;;;6.10;99.90;;;;;;4907299;29;20024;-88
2024/03/28 04:11:53;;;;;;;13.73;7.13;;;6.20;99.90;;;;;;4909907;29;20039;-89
2024/03/28 04:14:18;;;;;;;14.68;8.85;;;6.10;99.90;;;;;;4909804;29;20024;-89
2024/03/28 04:16:44;;;;;;;14.60;7.78;;;6.10;99.90;;;;;;4909794;29;20032;-89
2024/03/28 04:19:11;;;;;;;14.40;6.82;;;6.20;99.90;;;;;;4904918;29;20032;-89
2024/03/28 04:21:37;;;;;;;11.45;6.20;;;6.10;99.90;;;;;;4933508;29;20043;-89
2024/03/28 04:24:03;;;;;;;12.95;6.03;;;6.10;99.90;;;;;;4903099;29;20036;-89
2024/03/28 04:26:33;;;;;;;13.50;6.22;;;6.10;99.90;;;;;;4934219;29;20058;-88
2024/03/28 04:28:59;;;;;;;11.57;5.60;;;6.10;99.90;;;;;;4902326;29;20035;-89
2024/03/28 04:31:25;;;;;;;13.05;5.95;;;6.10;99.90;;;;;;4901782;29;20021;-89
2024/03/28 04:33:51;;;;;;;11.68;6.00;;;6.10;99.90;;;;;;4902225;29;20028;-88
2024/03/28 04:36:18;;;;;;;8.40;4.75;;;6.10;99.90;;;;;;4902094;29;20040;-89
2024/03/28 04:38:44;;;;;;;8.13;4.55;;;6.10;99.90;;;;;;4902074;29;20028;-88
2024/03/28 04:41:11;;;;;;;11.13;5.00;;;6.10;99.90;;;;;;4901855;29;20379;-89
2024/03/28 04:43:37;;;;;;;9.43;4.68;;;6.10;99.90;;;;;;4932851;29;20060;-89
2024/03/28 04:46:03;;;;;;;12.02;5.18;;;6.10;99.90;;;;;;4901745;29;20047;-88
2024/03/28 04:48:29;;;;;;;6.97;4.63;;;6.10;99.90;;;;;;4901954;29;20031;-88
2024/03/28 04:50:56;;;;;;;10.35;4.90;;;6.10;99.90;;;;;;4902272;29;20040;-89
2024/03/28 04:53:21;;;;;;;9.05;4.68;;;6.10;99.90;;;;;;4901689;29;20059;-88
2024/03/28 04:55:47;;;;;;;5.63;3.78;;;6.10;99.90;;;;;;4901565;29;20028;-88
2024/03/28 04:58:13;;;;;;;6.40;3.50;;;6.10;99.90;;;;;;4932937;29;20119;-88
2024/03/28 05:00:39;;;;;;;6.45;4.05;;;6.10;99.90;;;;;;4901099;29;20043;-88
2024/03/28 05:03:05;;;;;;;8.88;4.10;;;6.10;99.90;;;;;;4918411;29;20107;-88
2024/03/28 05:05:32;;;;;;;6.55;4.30;;;6.10;99.90;;;;;;4901240;29;20075;-89
2024/03/28 05:07:58;;;;;;;7.07;3.53;;;6.10;99.90;;;;;;4901614;29;20119;-88
2024/03/28 05:10:24;;;;;;;8.48;3.63;;;6.10;99.90;;;;;;4901106;29;20079;-88
2024/03/28 05:12:50;;;;;;;4.78;3.63;;;6.10;99.90;;;;;;4932165;29;20040;-88
2024/03/28 05:15:16;;;;;;;8.27;4.10;;;6.10;99.90;;;;;;4900451;29;20020;-88
2024/03/28 05:17:42;;;;;;;7.30;3.75;;;6.10;99.90;;;;;;4901157;29;20039;-88
2024/03/28 05:20:08;;;;;;;9.07;4.53;;;6.10;99.90;;;;;;4900838;29;20418;-87
2024/03/28 05:22:34;;;;;;;9.88;4.47;;;6.10;99.90;;;;;;4900499;29;20092;-88
2024/03/28 05:25:00;;;;;;;5.50;3.60;;;6.10;99.90;;;;;;4900851;29;20143;-87
2024/03/28 05:27:26;;;;;;;8.73;3.75;;;6.10;99.90;;;;;;4900995;29;20565;-88
2024/03/28 05:29:52;;;;;;;6.18;3.30;;;6.10;99.90;;;;;;4901081;29;20032;-88
2024/03/28 05:32:18;;;;;;;5.88;3.53;;;6.10;99.90;;;;;;4900824;29;20024;-88
2024/03/28 05:34:43;;;;;;;6.68;4.13;;;6.10;99.90;;;;;;4900654;29;20082;-90
2024/03/28 05:37:09;;;;;;;4.63;3.13;;;6.00;99.90;;;;;;4901363;29;20028;-87
2024/03/28 05:39:35;;;;;;;4.10;2.47;;;6.00;99.90;;;;;;4901453;29;20063;-87
2024/03/28 05:42:01;;;;;;;2.50;1.77;;;6.00;99.90;;;;;;4918144;29;20036;-87
2024/03/28 05:44:27;;;;;;;3.97;2.70;;;6.00;99.90;;;;;;4900929;29;20127;-88
2024/03/28 05:46:52;;;;;;;3.50;2.70;;;6.00;99.90;;;;;;4901177;29;20024;-88
2024/03/28 05:49:18;;;;;;;4.07;2.70;;;6.00;99.90;;;;;;4900681;29;20114;-88
2024/03/28 05:51:44;;;;;;;3.92;2.65;;;6.00;99.90;;;;;;4917861;29;20480;-87
2024/03/28 05:54:10;;;;;;;3.63;2.47;;;6.00;99.90;;;;;;4900098;29;20557;-88
2024/03/28 05:56:36;;;;;;;3.90;2.30;;;5.90;99.90;;;;;;4900095;29;20028;-88
2024/03/28 05:59:01;;;;;;;4.13;2.13;;;5.90;99.90;;;;;;4931808;29;20036;-87
2024/03/28 06:01:27;;;;;;;5.10;2.65;;;5.90;99.90;;;;;;4900149;29;20024;-87
2024/03/28 06:03:53;;;;;;;4.53;2.47;;;6.00;99.90;;;;;;4931674;29;20135;-88
2024/03/28 06:06:19;;;;;;;3.53;2.53;;;5.90;99.90;;;;;;4900146;29;20160;-88
2024/03/28 06:08:45;;;;;;;2.92;2.05;;;6.00;99.90;;;;;;4900504;29;20503;-87
2024/03/28 06:11:11;;;;;;;7.35;2.35;;;5.90;99.90;;;;;;4900126;29;20107;-87
2024/03/28 06:13:36;;;;;;;3.05;2.13;;;6.00;99.90;;;;;;4900147;29;20020;-87
2024/03/28 06:16:02;;;;;;;2.97;2.10;;;5.90;99.90;;;;;;4900107;29;20032;-87
2024/03/28 06:18:32;;;;;;;2.17;1.67;;;6.00;99.90;;;;;;4931682;29;20038;-87
2024/03/28 06:20:59;;;;;;;1.95;1.80;;;5.90;99.90;;;;;;4900106;29;20075;-87
2024/03/28 06:23:25;;;;;;;2.42;1.85;;;5.90;99.90;;;;;;4899657;29;20032;-87
2024/03/28 06:25:51;;;;;;;2.15;1.50;;;5.90;99.90;;;;;;4899952;29;20029;-88
2024/03/28 06:28:19;;;;;;;2.13;1.38;;;5.90;99.90;;;;;;4900143;29;20030;-87
2024/03/28 06:30:45;;;;;;;1.45;1.00;;;5.90;99.90;;;;;;4899952;29;20035;-87
2024/03/28 06:33:11;;;;;;;0.60;0.52;;;5.90;99.90;;;;;;4899797;29;20529;-88
2024/03/28 06:35:37;;;;;;;0.70;0.60;;;5.80;99.90;;;;;;4931586;29;20029;-87
2024/03/28 06:38:03;;;;;;;0.50;0.50;;;5.80;99.90;;;;;;4898302;29;20450;-87
2024/03/28 06:40:29;;;;;;;0.70;0.70;;;5.70;99.90;;;;;;4905635;29;20474;-87
2024/03/28 06:42:55;;;;;;;1.02;0.73;;;5.70;99.90;;;;;;4890668;29;20020;-87
2024/03/28 06:45:22;;;;;;;1.08;0.85;;;5.70;99.90;;;;;;4891993;29;20048;-87
2024/03/28 06:47:48;;;;;;;3.50;0.80;;;5.60;99.90;;;;;;4896291;29;20032;-87
2024/03/28 06:50:13;;;;;;;0.98;0.88;;;5.60;99.90;;;;;;4926263;29;20033;-87
2024/03/28 06:52:39;;;;;;;1.33;0.73;;;5.60;99.90;;;;;;4893911;29;20020;-87
2024/03/28 06:55:05;;;;;;;0.85;0.70;;;5.60;99.90;;;;;;4891506;29;20032;-86
2024/03/28 06:57:31;;;;;;;1.13;0.90;;;5.60;99.90;;;;;;4894812;29;20171;-87
2024/03/28 06:59:57;;;;;;;1.65;0.80;;;5.50;99.90;;;;;;4893606;29;20039;-87
2024/03/28 07:02:22;;;;;;;0.60;0.60;;;5.50;99.90;;;;;;4913234;29;20033;-88
2024/03/28 07:04:48;;;;;;;0.73;0.73;;;5.50;99.90;;;;;;4891641;29;20449;-87
2024/03/28 07:07:14;;;;;;;1.05;1.02;;;5.40;99.90;;;;;;4917448;29;20073;-87
2024/03/28 07:09:39;;;;;;;1.55;1.30;;;5.30;99.90;;;;;;4892229;29;20032;-89
2024/03/28 07:12:05;;;;;;;1.63;1.27;;;5.30;99.90;;;;;;4909671;29;20052;-85
2024/03/28 07:14:31;;;;;;;1.10;1.00;;;5.20;99.90;;;;;;4896850;29;20123;-88
2024/03/28 07:16:57;;;;;;;1.45;1.23;;;5.20;99.90;;;;;;4896603;29;20024;-88
2024/03/28 07:19:22;;;;;;;1.20;1.10;;;5.10;99.90;;;;;;4893554;29;20032;-87
2024/03/28 07:21:48;;;;;;;1.52;0.95;;;5.10;99.90;;;;;;4915546;29;20058;-88
2024/03/28 07:24:15;;;;;;;1.20;1.10;;;5.10;99.90;;;;;;4900128;29;20040;-88
2024/03/28 07:26:41;;;;;;;1.35;1.23;;;5.00;99.90;;;;;;4903553;29;20071;-87
2024/03/28 07:29:08;;;;;;;1.35;1.25;;;5.00;99.90;;;;;;4896986;29;20077;-87
2024/03/28 07:31:34;;;;;;;1.08;1.00;;;5.00;99.90;;;;;;4892012;29;20028;-87
2024/03/28 07:34:00;;;;;;;0.90;0.90;;;5.00;99.90;;;;;;4891818;29;20084;-88
2024/03/28 07:36:26;;;;;;;1.38;1.17;;;5.00;99.90;;;;;;4893124;29;20036;-88
2024/03/28 07:38:52;;;;;;;1.10;1.02;;;4.90;99.90;;;;;;4910294;29;20412;-87
2024/03/28 07:41:19;;;;;;;0.90;0.90;;;5.00;99.90;;;;;;4892583;29;20032;-88
2024/03/28 07:43:46;;;;;;;1.08;0.98;;;5.00;99.90;;;;;;4890160;29;20095;-88
2024/03/28 07:46:12;;;;;;;0.80;0.80;;;5.00;99.90;;;;;;4892876;29;20028;-88
2024/03/28 07:48:37;;;;;;;0.90;0.70;;;5.00;99.90;;;;;;4891341;29;20530;-88
2024/03/28 07:51:04;;;;;;;0.90;0.57;;;5.00;99.90;;;;;;4889379;29;20048;-89
2024/03/28 07:53:32;;;;;;;0.50;0.50;;;5.10;99.90;;;;;;4899017;29;20095;-89
2024/03/28 07:55:58;;;;;;;1.02;0.60;;;5.10;99.90;;;;;;4883301;29;20062;-88
2024/03/28 07:58:25;;;;;;;0.40;0.40;;;5.10;99.90;;;;;;4886203;29;20035;-89
2024/03/28 08:00:54;;;;;;;2.22;0.32;;;5.10;99.90;;;;;;4888734;29;20122;-88
2024/03/28 08:03:20;;;;;;;0.30;0.30;;;5.10;99.90;;;;;;4899973;29;20090;-89
2024/03/28 08:05:48;;;;;;;1.70;0.30;;;5.10;99.90;;;;;;4902649;29;20205;-89
2024/03/28 08:08:14;;;;;;;0.30;0.28;;;5.10;99.90;;;;;;4934276;29;20493;-89
2024/03/28 08:10:39;;;;;;;1.38;0.17;;;5.20;99.90;;;;;;4902522;29;20080;-90
2024/03/28 08:13:05;;;;;;;0.45;0.30;;;5.20;99.90;;;;;;4902432;29;20032;-88
2024/03/28 08:15:33;;;;;;;0.68;0.40;;;5.20;99.90;;;;;;4901929;29;20327;-88
2024/03/28 08:18:02;;;;;;;2.00;0.30;;;5.20;99.90;;;;;;4901818;29;20032;-89
2024/03/28 08:20:28;;;;;;;0.63;0.20;;;5.20;99.90;;;;;;4901318;29;20031;-89
2024/03/28 08:22:54;;;;;;;1.23;0.30;;;5.20;99.90;;;;;;4898693;29;20025;-89
2024/03/28 08:25:22;;;;;;;2.92;0.20;;;5.30;99.90;;;;;;4914117;29;20190;-88
2024/03/28 08:27:48;;;;;;;1.13;0.30;;;5.30;99.90;;;;;;4902366;29;20030;-88
2024/03/28 08:30:15;;;;;;;0.40;0.30;;;5.30;99.90;;;;;;4894034;29;20032;-88
2024/03/28 08:32:40;;;;;;;3.13;0.68;;;5.40;99.90;;;;;;4898583;29;20120;-89
2024/03/28 08:35:06;;;;;;;1.63;0.22;;;5.40;99.90;;;;;;4901412;29;20537;-89
2024/03/28 08:37:32;;;;;;;1.08;0.35;;;5.40;99.90;;;;;;4901735;29;20067;-89
2024/03/28 08:39:58;;;;;;;0.95;0.30;;;5.40;99.90;;;;;;4902004;29;20024;-89
2024/03/28 08:42:24;;;;;;;1.35;0.35;;;5.30;99.90;;;;;;4901760;29;20032;-88
2024/03/28 08:44:50;;;;;;;2.63;0.30;;;5.30;99.90;;;;;;4918217;29;20131;-88
2024/03/28 08:47:16;;;;;;;2.53;0.50;;;5.40;99.90;;;;;;4906877;29;20126;-88
2024/03/28 08:49:42;;;;;;;1.50;0.50;;;5.50;99.90;;;;;;4911978;29;20060;-88
2024/03/28 08:52:08;;;;;;;1.17;0.32;;;5.50;99.90;;;;;;4909904;29;20036;-88
2024/03/28 08:54:36;;;;;;;1.73;0.57;;;5.60;99.90;;;;;;4902353;29;20493;-89
2024/03/28 08:57:01;;;;;;;1.90;0.47;;;5.70;99.90;;;;;;4902558;29;20020;-88
2024/03/28 08:59:27;;;;;;;0.82;0.25;;;5.70;99.90;;;;;;4891429;29;20043;-91
2024/03/28 09:01:53;;;;;;;0.80;0.40;;;5.70;99.90;;;;;;4905753;29;20028;-89
2024/03/28 09:04:20;;;;;;;3.08;0.80;;;5.70;99.90;;;;;;4907957;29;20056;-90
2024/03/28 09:06:52;;;;;;;4.72;1.13;;;5.80;99.90;;;;;;4912131;29;20068;-90
2024/03/28 09:09:18;;;;;;;3.53;0.45;;;5.90;99.90;;;;;;4908118;29;20063;-89
2024/03/28 09:11:44;;;;;;;2.90;0.32;;;5.90;99.90;;;;;;4909713;29;20016;-89
2024/03/28 09:14:10;;;;;;;2.38;0.60;;;5.90;99.90;;;;;;4908884;29;20023;-89
2024/03/28 09:16:36;;;;;;;0.57;0.35;;;6.00;99.90;;;;;;4909012;29;20043;-89
2024/03/28 09:19:02;;;;;;;2.67;0.65;;;6.00;99.90;;;;;;4911046;29;20052;-88
2024/03/28 09:21:27;;;;;;;2.38;0.50;;;6.10;99.90;;;;;;4912018;29;20035;-89
2024/03/28 09:23:54;;;;;;;2.08;0.60;;;6.10;99.90;;;;;;4914719;29;20049;-88
2024/03/28 09:26:20;;;;;;;1.02;0.50;;;6.20;99.90;;;;;;4910725;29;20063;-89
2024/03/28 09:28:53;;;;;;;0.73;0.30;;;6.30;99.90;;;;;;4910529;29;20481;-90
2024/03/28 09:31:19;;;;;;;2.65;0.50;;;6.30;99.90;;;;;;4910807;29;20035;-89
2024/03/28 09:33:45;;;;;;;2.28;0.63;;;6.40;99.90;;;;;;4910034;29;20032;-90
2024/03/28 09:36:13;;;;;;;2.10;0.50;;;6.40;99.90;;;;;;4908944;29;20160;-90
2024/03/28 09:38:50;;;;;;;0.55;0.40;;;6.30;99.90;;;;;;4907762;29;20063;-89
2024/03/28 09:41:29;;;;;;;1.17;0.68;;;6.30;99.90;;;;;;4910962;29;20032;-90
2024/03/28 09:44:04;;;;;;;1.95;0.57;;;6.50;99.90;;;;;;4921589;29;20050;-90
2024/03/28 09:46:30;;;;;;;1.88;0.40;;;6.70;99.90;;;;;;4908523;29;20016;-90
2024/03/28 09:49:23;;;;;;;4.30;0.60;;;6.90;99.90;;;;;;4908383;29;20024;-93
2024/03/28 09:51:52;;;;;;;4.32;0.60;;;7.00;99.90;;;;;;4912775;29;20059;-90
2024/03/28 09:54:18;;;;;;;5.00;0.50;;;7.10;99.90;;;;;;4919650;29;20031;-89
2024/03/28 09:56:44;;;;;;;3.53;0.57;;;7.20;99.90;;;;;;4936713;29;20115;-91
2024/03/28 09:59:10;;;;;;;2.92;0.50;;;7.50;99.90;;;;;;4904487;29;20055;-91
2024/03/28 10:01:38;;;;;;;1.15;0.47;;;7.70;99.90;;;;;;4900785;29;20501;-91
2024/03/28 10:04:10;;;;;;;1.33;0.65;;;7.70;99.90;;;;;;4900932;29;20047;-90
2024/03/28 10:06:35;;;;;;;3.33;0.38;;;7.60;99.90;;;;;;4905904;29;20064;-90
2024/03/28 10:09:02;;;;;;;4.13;1.67;;;7.60;99.90;;;;;;4913396;29;20131;-91
2024/03/28 10:11:28;;;;;;;2.85;0.63;;;7.50;99.90;;;;;;4909416;29;20084;-90
2024/03/28 10:13:55;;;;;;;2.15;0.60;;;7.50;99.90;;;;;;4901064;29;20059;-91
2024/03/28 10:16:22;;;;;;;1.20;0.50;;;7.50;99.90;;;;;;4899954;29;20063;-89
2024/03/28 10:18:54;;;;;;;2.03;0.52;;;7.60;99.90;;;;;;4899473;29;20035;-90
2024/03/28 10:21:19;;;;;;;3.20;0.80;;;7.70;99.90;;;;;;4931524;29;20581;-91
2024/03/28 10:23:45;;;;;;;2.95;1.08;;;7.90;99.90;;;;;;4912266;29;20122;-89
2024/03/28 10:26:15;;;;;;;2.25;0.38;;;8.00;99.90;;;;;;4918170;29;20123;-89
2024/03/28 10:28:42;;;;;;;4.35;0.45;;;8.00;99.90;;;;;;4919143;29;20028;-94
2024/03/28 10:31:08;;;;;;;2.88;0.47;;;8.20;99.90;;;;;;4924038;29;20091;-94
2024/03/28 10:33:33;;;;;;;3.55;1.17;;;8.50;99.90;;;;;;4925628;29;20023;-95
2024/03/28 10:36:01;;;;;;;1.33;0.32;;;8.70;99.90;;;;;;4926590;29;20023;-95
2024/03/28 10:38:27;;;;;;;2.08;0.50;;;9.00;99.90;;;;;;4921285;29;20043;-94
2024/03/28 10:41:00;;;;;;;3.55;0.50;;;9.10;99.90;;;;;;4919977;29;20481;-95
2024/03/28 10:43:27;;;;;;;2.22;0.55;;;9.20;99.90;;;;;;4920428;29;20060;-93
2024/03/28 10:45:59;;;;;;;1.95;0.47;;;9.20;99.90;;;;;;4923079;29;20144;-96
2024/03/28 10:48:26;;;;;;;0.85;0.40;;;9.30;99.90;;;;;;4923137;29;20035;-95
2024/03/28 10:51:18;;;;;;;1.55;0.30;;;9.50;99.90;;;;;;4924724;29;20036;-94
2024/03/28 10:54:03;;;;;;;1.55;0.60;;;9.70;99.90;;;;;;4922149;29;20181;-95
2024/03/28 10:56:32;;;;;;;0.80;0.40;;;9.90;99.90;;;;;;4922370;29;20035;-96
2024/03/28 10:59:02;;;;;;;1.65;0.40;;;10.00;99.90;;;;;;4926754;29;20026;-94
2024/03/28 11:01:31;;;;;;;1.53;0.50;;;10.20;99.90;;;;;;4927031;29;20044;-96
2024/03/28 11:04:00;;;;;;;3.03;0.45;;;10.50;99.90;;;;;;4927682;29;20071;-95
2024/03/28 11:06:26;;;;;;;1.73;0.47;;;10.50;99.90;;;;;;4929367;29;20031;-96
2024/03/28 11:09:02;;;;;;;4.90;1.38;;;10.60;99.90;;;;;;4923906;29;20055;-94
2024/03/28 11:11:30;;;;;;;1.88;0.30;;;10.70;99.90;;;;;;4926370;29;20032;-94
2024/03/28 11:13:57;;;;;;;1.15;0.40;;;10.80;99.90;;;;;;4924758;29;20028;-94
2024/03/28 11:17:13;;;;;;;1.02;0.30;;;10.90;99.90;;;;;;4924653;29;20036;-96
2024/03/28 11:19:42;;;;;;;3.65;0.50;;;11.00;99.50;;;;;;4922026;29;20126;-96
2024/03/28 11:22:08;;;;;;;3.30;0.60;;;11.20;98.80;;;;;;4922118;29;20489;-94
2024/03/28 11:24:34;;;;;;;3.13;0.40;;;11.30;97.90;;;;;;4921432;29;20071;-96
2024/03/28 11:27:01;;;;;;;3.25;0.63;;;11.50;96.60;;;;;;4920664;29;20052;-96
2024/03/28 11:29:27;;;;;;;3.83;0.50;;;11.50;95.40;;;;;;4921438;29;20032;-95
2024/03/28 11:31:57;;;;;;;0.90;0.40;;;11.50;94.40;;;;;;4923948;29;20067;-96
2024/03/28 11:34:29;;;;;;;2.25;0.47;;;11.40;94.70;;;;;;4926341;29;20048;-95
2024/03/28 11:37:00;;;;;;;5.88;0.85;;;11.20;94.60;;;;;;4929006;29;20055;-96
2024/03/28 11:39:27;;;;;;;2.70;0.52;;;11.20;95.10;;;;;;4929652;29;20128;-94
2024/03/28 11:41:53;;;;;;;2.40;0.52;;;11.00;94.30;;;;;;4929920;29;20071;-96
2024/03/28 11:44:20;;;;;;;1.23;0.40;;;10.90;94.00;;;;;;4926943;29;20059;-95
2024/03/28 11:46:46;;;;;;;1.95;0.68;;;10.80;93.90;;;;;;4928879;29;20032;-95
2024/03/28 11:49:19;;;;;;;2.08;0.50;;;10.60;94.00;;;;;;4930633;29;20039;-95
2024/03/28 11:51:54;;;;;;;2.55;0.70;;;10.50;94.10;;;;;;4931304;29;20066;-96
2024/03/28 11:54:20;;;;;;;5.70;0.40;;;10.40;94.60;;;;;;4928625;29;20040;-93
2024/03/28 11:56:46;;;;;;;3.03;0.40;;;10.40;94.60;;;;;;4916560;29;20098;-94
2024/03/28 11:59:30;;;;;;;12.48;0.60;;;10.40;94.30;;;;;;4914821;29;20052;-95
2024/03/28 12:02:05;;;;;;;1.42;0.50;;;10.30;94.00;;;;;;4912614;29;20498;-95
2024/03/28 12:04:30;;;;;;;3.08;0.52;;;10.30;94.00;;;;;;4927689;29;20051;-95
2024/03/28 12:07:00;;;;;;;2.17;0.50;;;10.50;94.20;;;;;;4909139;29;20119;-94
2024/03/28 12:09:29;;;;;;;1.23;0.60;;;10.60;93.50;;;;;;4906103;29;20216;-93
2024/03/28 12:12:10;;;;;;;1.90;0.35;;;10.80;93.90;;;;;;4905592;29;20044;-95
2024/03/28 12:14:37;;;;;;;1.15;0.50;;;11.10;93.60;;;;;;4911795;29;20028;-94
2024/03/28 12:17:05;;;;;;;0.22;0.20;;;11.00;92.60;;;;;;4913835;29;20035;-93
2024/03/28 12:19:31;;;;;;;3.97;0.40;;;11.20;92.40;;;;;;4901930;29;20043;-95
2024/03/28 12:22:04;;;;;;;3.63;0.35;;;11.40;92.60;;;;;;4900830;29;20033;-95
2024/03/28 12:24:30;;;;;;;1.25;0.22;;;11.60;92.60;;;;;;4902275;29;20040;-94
2024/03/28 12:27:02;;;;;;;5.45;0.93;;;11.60;91.90;;;;;;4903765;29;20115;-95
2024/03/28 12:29:28;;;;;;;2.83;0.50;;;11.50;91.60;;;;;;4904312;29;20032;-94
2024/03/28 12:32:09;;;;;;;3.70;0.70;;;11.40;91.10;;;;;;4903794;29;20024;-93
2024/03/28 12:34:35;;;;;;;1.50;0.28;;;11.40;91.40;;;;;;4904407;29;20423;-94
2024/03/28 12:37:01;;;;;;;2.85;0.50;;;11.60;91.30;;;;;;4903968;29;20028;-95
2024/03/28 12:39:27;;;;;;;3.50;0.63;;;11.60;91.20;;;;;;4903318;29;20036;-94
2024/03/28 12:41:59;;;;;;;1.70;0.47;;;11.70;91.10;;;;;;4904105;29;20486;-95
2024/03/28 12:44:27;;;;;;;3.50;0.65;;;11.80;91.20;;;;;;4902152;29;20056;-94
2024/03/28 12:46:56;;;;;;;3.33;0.60;;;12.00;91.10;;;;;;4885501;29;20079;-95
2024/03/28 12:49:22;;;;;;;1.38;0.40;;;12.20;90.70;;;;;;4905182;29;20028;-95
2024/03/28 12:51:48;;;;;;;3.30;0.63;;;12.20;90.30;;;;;;4899898;29;20114;-94
2024/03/28 12:54:13;;;;;;;3.92;1.00;;;12.10;90.10;;;;;;4902786;29;20126;-96
2024/03/28 12:56:39;;;;;;;7.05;0.73;;;11.90;90.00;;;;;;4888345;29;20119;-94
2024/03/28 12:59:07;;;;;;;3.88;0.82;;;11.70;90.00;;;;;;4899034;29;20035;-94